createdAt,value
2018-03-11T05:53:05.674Z,32.3
2018-03-11T05:53:55.043Z,31.1
2018-03-11T05:54:44.374Z,30.8
2018-03-11T05:55:34.704Z,30.9
2018-03-11T05:56:23.830Z,31
2018-03-11T05:57:12.972Z,31.1
2018-03-11T05:58:04.487Z,31.3
2018-03-11T05:58:54.456Z,31.4
2018-03-11T05:59:44.032Z,31.4
2018-03-11T06:00:34.685Z,31.4
2018-03-11T06:01:24.831Z,31.4
2018-03-11T06:02:14.711Z,29.9
2018-03-11T06:03:04.281Z,28.3
2018-03-11T06:03:54.791Z,27.4
2018-03-11T06:04:44.852Z,27.1
2018-03-11T06:05:35.001Z,27.1
2018-03-11T06:06:25.463Z,25.8
2018-03-11T06:07:15.919Z,25.5
2018-03-11T06:08:05.827Z,25.8
2018-03-11T06:08:54.399Z,26.1
2018-03-11T06:09:45.672Z,26.5
2018-03-11T06:10:36.449Z,27.2
2018-03-11T06:11:25.194Z,28.2
2018-03-11T06:12:15.632Z,29.4
2018-03-11T06:13:05.391Z,31.2
2018-03-11T06:13:55.246Z,33.2
2018-03-11T06:14:46.466Z,34.6
2018-03-11T06:15:35.626Z,32.8
2018-03-11T06:16:25.696Z,31.9
2018-03-11T06:17:15.624Z,31.7
2018-03-11T06:18:06.120Z,31.7
2018-03-11T06:18:56.569Z,31.8
2018-03-11T06:19:45.012Z,31.8
2018-03-11T06:20:34.940Z,31.9
2018-03-11T06:21:25.301Z,31.9
2018-03-11T06:22:14.778Z,31.9
2018-03-11T06:23:05.402Z,31.9
2018-03-11T06:23:55.451Z,31.9
2018-03-11T06:24:44.547Z,31.3
2018-03-11T06:25:35.756Z,29.1
2018-03-11T06:26:25.258Z,27.9
2018-03-11T06:27:16.370Z,27.4
2018-03-11T06:28:05.145Z,27.3
2018-03-11T06:28:55.511Z,26.6
2018-03-11T06:29:46.625Z,25.4
2018-03-11T06:30:37.907Z,25.9
2018-03-11T06:31:27.484Z,26.2
2018-03-11T06:32:15.545Z,26.6
2018-03-11T06:33:06.310Z,27.3
2018-03-11T06:33:58.880Z,28.4
2018-03-11T06:34:49.257Z,30.2
2018-03-11T06:35:37.612Z,32.2
2018-03-11T06:36:28.830Z,34.3
2018-03-11T06:37:18.887Z,34.4
2018-03-11T06:38:09.259Z,32.9
2018-03-11T06:38:57.264Z,32.3
2018-03-11T06:39:48.662Z,32.1
2018-03-11T06:40:38.602Z,32.1
2018-03-11T06:41:27.622Z,32.1
2018-03-11T06:42:16.959Z,32.1
2018-03-11T06:43:09.097Z,32.2
2018-03-11T06:43:58.779Z,32.2
2018-03-11T06:44:49.676Z,32.1
2018-03-11T06:45:39.477Z,32.1
2018-03-11T06:46:29.495Z,32
2018-03-11T06:47:19.340Z,31.9
2018-03-11T06:48:09.938Z,31.8
2018-03-11T06:48:59.157Z,31.7
2018-03-11T06:49:49.768Z,31.6
2018-03-11T06:50:39.042Z,31.4
2018-03-11T06:51:28.311Z,31.3
2018-03-11T06:52:18.344Z,31.1
2018-03-11T06:53:08.544Z,31
2018-03-11T06:53:57.699Z,30.8
2018-03-11T06:54:48.758Z,30.7
2018-03-11T06:55:39.098Z,30.6
2018-03-11T06:56:29.838Z,29.6
2018-03-11T06:57:18.543Z,27.3
2018-03-11T06:58:08.217Z,26.8
2018-03-11T06:58:59.950Z,26.7
2018-03-11T06:59:49.495Z,26.8
2018-03-11T07:00:39.220Z,27.3
2018-03-11T07:01:28.938Z,28.1
2018-03-11T07:02:18.880Z,29.2
2018-03-11T07:03:09.403Z,31.1
2018-03-11T07:03:59.207Z,33.3
2018-03-11T07:04:48.985Z,35.4
2018-03-11T07:05:38.460Z,34.3
2018-03-11T07:06:28.288Z,33.3
2018-03-11T07:07:19.191Z,32.8
2018-03-11T07:08:09.328Z,32.6
2018-03-11T07:09:00.877Z,32.6
2018-03-11T07:09:50.767Z,32.7
2018-03-11T07:10:40.980Z,32.7
2018-03-11T07:11:31.417Z,32.7
2018-03-11T07:12:21.627Z,32.7
2018-03-11T07:13:12.048Z,32.6
2018-03-11T07:14:00.940Z,32.5
2018-03-11T07:14:49.964Z,32.4
2018-03-11T07:15:39.939Z,32.3
2018-03-11T07:16:29.698Z,32.1
2018-03-11T07:17:19.342Z,32
2018-03-11T07:18:09.843Z,31.8
2018-03-11T07:19:00.267Z,31.7
2018-03-11T07:19:50.643Z,31.5
2018-03-11T07:20:39.239Z,31.4
2018-03-11T07:21:30.280Z,31.3
2018-03-11T07:22:19.602Z,31.1
2018-03-11T07:23:10.227Z,30.9
2018-03-11T07:24:00.328Z,30.1
2018-03-11T07:24:49.244Z,27.8
2018-03-11T07:25:41.919Z,27.3
2018-03-11T07:26:31.361Z,27.1
2018-03-11T07:27:18.819Z,27.3
2018-03-11T07:28:10.551Z,27.9
2018-03-11T07:29:00.878Z,29.3
2018-03-11T07:29:50.507Z,31.2
2018-03-11T07:30:40.975Z,33.4
2018-03-11T07:31:30.952Z,35.4
2018-03-11T07:32:20.368Z,34.3
2018-03-11T07:33:10.211Z,33.3
2018-03-11T07:34:01.952Z,32.9
2018-03-11T07:34:51.785Z,32.7
2018-03-11T07:35:41.791Z,32.7
2018-03-11T07:36:31.175Z,32.8
2018-03-11T07:37:20.924Z,32.8
2018-03-11T07:38:10.512Z,32.8
2018-03-11T07:39:00.246Z,32.7
2018-03-11T07:39:50.893Z,32.7
2018-03-11T07:40:41.151Z,32.6
2018-03-11T07:41:32.778Z,32.4
2018-03-11T07:42:21.652Z,32.3
2018-03-11T07:43:11.225Z,32.2
2018-03-11T07:44:00.783Z,32
2018-03-11T07:44:52.721Z,31.9
2018-03-11T07:45:40.724Z,31.8
2018-03-11T07:46:31.647Z,31.6
2018-03-11T07:47:21.797Z,31.4
2018-03-11T07:48:11.714Z,31.3
2018-03-11T07:49:01.998Z,31.1
2018-03-11T07:49:50.934Z,30.9
2018-03-11T07:50:41.438Z,28.9
2018-03-11T07:51:32.170Z,27.8
2018-03-11T07:52:22.091Z,27.3
2018-03-11T07:53:11.080Z,27.3
2018-03-11T07:54:02.085Z,27.9
2018-03-11T07:54:51.882Z,29
2018-03-11T07:55:42.547Z,30.9
2018-03-11T07:56:31.792Z,33.4
2018-03-11T07:57:22.671Z,35.6
2018-03-11T07:58:12.750Z,34.7
2018-03-11T07:59:00.940Z,33.6
2018-03-11T07:59:53.169Z,33.2
2018-03-11T08:00:42.807Z,33
2018-03-11T08:01:32.343Z,33
2018-03-11T08:02:22.137Z,33
2018-03-11T08:03:13.897Z,33.1
2018-03-11T08:04:03.722Z,33.1
2018-03-11T08:04:53.075Z,33
2018-03-11T08:05:43.897Z,32.9
2018-03-11T08:06:31.641Z,32.8
2018-03-11T08:07:24.187Z,32.7
2018-03-11T08:08:13.572Z,32.6
2018-03-11T08:09:02.751Z,32.4
2018-03-11T08:09:53.534Z,32.3
2018-03-11T08:10:42.649Z,32.1
2018-03-11T08:11:33.854Z,31.9
2018-03-11T08:12:24.241Z,31.8
2018-03-11T08:13:13.394Z,31.6
2018-03-11T08:14:03.637Z,31.4
2018-03-11T08:14:53.257Z,31.3
2018-03-11T08:15:43.651Z,31.1
2018-03-11T08:16:33.516Z,30.3
2018-03-11T08:17:24.790Z,28.1
2018-03-11T08:18:14.841Z,27.4
2018-03-11T08:19:04.729Z,27.3
2018-03-11T08:19:53.095Z,27.9
2018-03-11T08:20:43.761Z,29
2018-03-11T08:21:34.319Z,31.3
2018-03-11T08:22:25.443Z,33.8
2018-03-11T08:23:13.333Z,35.8
2018-03-11T08:24:03.320Z,35.4
2018-03-11T08:24:54.608Z,34.6
2018-03-11T08:25:42.924Z,34.2
2018-03-11T08:26:33.775Z,34.1
2018-03-11T08:27:24.935Z,33.9
2018-03-11T08:28:14.608Z,33.9
2018-03-11T08:29:04.337Z,33.9
2018-03-11T08:29:55.295Z,33.8
2018-03-11T08:30:45.341Z,33.7
2018-03-11T08:31:34.849Z,33.6
2018-03-11T08:32:26.150Z,33.4
2018-03-11T08:33:15.815Z,33.3
2018-03-11T08:34:05.279Z,33.1
2018-03-11T08:34:55.843Z,32.9
2018-03-11T08:35:45.518Z,32.8
2018-03-11T08:36:35.080Z,32.6
2018-03-11T08:37:25.538Z,32.4
2018-03-11T08:38:15.394Z,32.2
2018-03-11T08:39:05.944Z,32
2018-03-11T08:39:55.361Z,31.8
2018-03-11T08:40:44.737Z,31.6
2018-03-11T08:41:34.747Z,31.4
2018-03-11T08:42:25.361Z,31.1
2018-03-11T08:43:15.881Z,28.7
2018-03-11T08:44:06.039Z,27.8
2018-03-11T08:44:57.615Z,27.4
2018-03-11T08:45:47.654Z,28.1
2018-03-11T08:46:37.441Z,29.8
2018-03-11T08:47:27.485Z,32.2
2018-03-11T08:48:17.673Z,34.8
2018-03-11T08:49:05.877Z,36.1
2018-03-11T08:49:56.933Z,35.3
2018-03-11T08:50:47.316Z,34.7
2018-03-11T08:51:37.836Z,34.4
2018-03-11T08:52:27.580Z,34.3
2018-03-11T08:53:18.451Z,34.3
2018-03-11T08:54:08.587Z,34.2
2018-03-11T08:54:57.983Z,34.1
2018-03-11T08:55:48.625Z,34
2018-03-11T08:56:36.334Z,33.9
2018-03-11T08:57:28.049Z,33.8
2018-03-11T08:58:17.559Z,33.6
2018-03-11T08:59:07.719Z,33.4
2018-03-11T08:59:57.254Z,33.3
2018-03-11T09:00:48.305Z,33.1
2018-03-11T09:01:36.981Z,32.9
2018-03-11T09:02:27.768Z,32.6
2018-03-11T09:03:18.961Z,32.4
2018-03-11T09:04:09.014Z,32.3
2018-03-11T09:04:59.107Z,32
2018-03-11T09:05:49.333Z,31.8
2018-03-11T09:06:39.653Z,31.6
2018-03-11T09:07:28.951Z,31.5
2018-03-11T09:08:19.530Z,31.1
2018-03-11T09:09:09.333Z,28.8
2018-03-11T09:09:59.181Z,27.9
2018-03-11T09:10:50.011Z,27.9
2018-03-11T09:11:39.745Z,28.7
2018-03-11T09:12:29.555Z,30.7
2018-03-11T09:13:19.312Z,33.3
2018-03-11T09:14:09.996Z,35.5
2018-03-11T09:14:59.683Z,36
2018-03-11T09:15:50.458Z,35.3
2018-03-11T09:16:40.389Z,34.8
2018-03-11T09:17:28.170Z,34.6
2018-03-11T09:18:17.360Z,34.4
2018-03-11T09:19:08.577Z,34.4
2018-03-11T09:19:58.245Z,34.3
2018-03-11T09:20:49.489Z,34.3
2018-03-11T09:21:39.362Z,34.2
2018-03-11T09:22:29.090Z,34
2018-03-11T09:23:18.628Z,33.9
2018-03-11T09:24:08.210Z,33.7
2018-03-11T09:24:58.198Z,33.5
2018-03-11T09:25:48.992Z,33.3
2018-03-11T09:26:38.412Z,33.1
2018-03-11T09:27:29.802Z,32.9
2018-03-11T09:28:18.582Z,32.7
2018-03-11T09:29:09.681Z,32.4
2018-03-11T09:29:58.952Z,32.3
2018-03-11T09:30:49.112Z,32.1
2018-03-11T09:31:39.474Z,31.8
2018-03-11T09:32:29.069Z,31.7
2018-03-11T09:33:19.734Z,31.4
2018-03-11T09:34:09.633Z,31.1
2018-03-11T09:34:59.669Z,28.8
2018-03-11T09:35:49.876Z,28.1
2018-03-11T09:36:39.591Z,28.3
2018-03-11T09:37:29.004Z,29.8
2018-03-11T09:38:18.072Z,32.4
2018-03-11T09:39:09.871Z,34.9
2018-03-11T09:40:00.475Z,36.4
2018-03-11T09:40:51.309Z,35.9
2018-03-11T09:41:41.839Z,35.5
2018-03-11T09:42:29.661Z,35.3
2018-03-11T09:43:21.341Z,35.1
2018-03-11T09:44:12.513Z,35
2018-03-11T09:45:01.606Z,34.9
2018-03-11T09:45:51.888Z,34.8
2018-03-11T09:46:42.066Z,34.7
2018-03-11T09:47:31.575Z,34.5
2018-03-11T09:48:22.166Z,34.3
2018-03-11T09:49:10.173Z,34.1
2018-03-11T09:50:00.186Z,33.9
2018-03-11T09:50:51.109Z,33.7
2018-03-11T09:51:40.353Z,33.4
2018-03-11T09:52:30.646Z,33.2
2018-03-11T09:53:21.326Z,33
2018-03-11T09:54:11.192Z,32.8
2018-03-11T09:55:01.853Z,32.5
2018-03-11T09:55:52.270Z,32.3
2018-03-11T09:56:41.450Z,32.1
2018-03-11T09:57:31.446Z,31.9
2018-03-11T09:58:21.300Z,31.6
2018-03-11T09:59:11.833Z,31.4
2018-03-11T10:00:01.863Z,31
2018-03-11T10:00:51.782Z,28.8
2018-03-11T10:01:41.966Z,28.1
2018-03-11T10:02:30.695Z,28.4
2018-03-11T10:03:21.998Z,30.2
2018-03-11T10:04:12.052Z,33
2018-03-11T10:05:03.403Z,35.3
2018-03-11T10:05:50.981Z,36.3
2018-03-11T10:06:42.041Z,35.8
2018-03-11T10:07:32.780Z,35.3
2018-03-11T10:08:21.857Z,35.1
2018-03-11T10:09:12.056Z,34.9
2018-03-11T10:10:01.659Z,34.8
2018-03-11T10:10:52.153Z,34.6
2018-03-11T10:11:42.316Z,34.4
2018-03-11T10:12:32.487Z,34.3
2018-03-11T10:13:22.894Z,34
2018-03-11T10:14:12.074Z,33.8
2018-03-11T10:15:02.304Z,33.5
2018-03-11T10:15:52.197Z,33.2
2018-03-11T10:16:42.329Z,32.9
2018-03-11T10:17:33.193Z,32.6
2018-03-11T10:18:22.434Z,32.3
2018-03-11T10:19:13.220Z,32.1
2018-03-11T10:20:03.246Z,31.7
2018-03-11T10:20:52.195Z,31.4
2018-03-11T10:21:42.783Z,31.2
2018-03-11T10:22:32.609Z,30.9
2018-03-11T10:23:22.839Z,30.7
2018-03-11T10:24:13.856Z,30.4
2018-03-11T10:25:04.291Z,30.2
2018-03-11T10:25:54.409Z,30
2018-03-11T10:26:43.900Z,29.8
2018-03-11T10:27:34.835Z,29.6
2018-03-11T10:28:22.264Z,29.4
2018-03-11T10:29:13.043Z,29.3
2018-03-11T10:30:02.831Z,29.1
2018-03-11T10:30:53.861Z,28.9
2018-03-11T10:31:43.607Z,28.8
2018-03-11T10:32:34.660Z,28.6
2018-03-11T10:33:24.633Z,28.4
2018-03-11T10:34:14.687Z,28.3
2018-03-11T10:35:03.593Z,28.1
2018-03-11T10:35:52.671Z,27.9
2018-03-11T10:37:32.590Z,27.7
2018-03-11T10:38:23.783Z,27.6
2018-03-11T10:39:13.803Z,27.4
2018-03-11T10:40:03.664Z,27.3
2018-03-11T10:40:54.001Z,26.7
2018-03-11T10:41:44.003Z,25.6
2018-03-11T10:42:34.570Z,26
2018-03-11T10:43:25.195Z,26.3
2018-03-11T10:44:14.472Z,27.1
2018-03-11T10:45:04.910Z,28.6
2018-03-11T10:45:55.289Z,31.4
2018-03-11T10:46:45.679Z,34.2
2018-03-11T10:47:34.815Z,36
2018-03-11T10:48:24.643Z,36.5
2018-03-11T10:49:15.879Z,36.1
2018-03-11T10:50:05.335Z,35.8
2018-03-11T10:50:55.667Z,35.5
2018-03-11T10:51:46.309Z,35.3
2018-03-11T10:52:35.912Z,35.1
2018-03-11T10:53:24.877Z,34.9
2018-03-11T10:54:15.329Z,34.8
2018-03-11T10:55:05.137Z,34.6
2018-03-11T10:55:55.400Z,34.3
2018-03-11T10:56:46.448Z,34.1
2018-03-11T10:57:35.338Z,33.8
2018-03-11T10:58:25.269Z,33.6
2018-03-11T10:59:14.372Z,33.3
2018-03-11T11:00:05.214Z,32.9
2018-03-11T11:00:56.816Z,32.7
2018-03-11T11:01:44.937Z,32.4
2018-03-11T11:02:36.652Z,32.1
2018-03-11T11:03:27.280Z,31.9
2018-03-11T11:04:15.812Z,31.7
2018-03-11T11:05:05.467Z,31.4
2018-03-11T11:05:56.152Z,31.3
2018-03-11T11:06:46.164Z,31
2018-03-11T11:07:36.948Z,30.8
2018-03-11T11:08:25.854Z,30.6
2018-03-11T11:09:16.827Z,30.4
2018-03-11T11:10:05.529Z,30.3
2018-03-11T11:10:56.448Z,30.1
2018-03-11T11:11:47.135Z,29.9
2018-03-11T11:12:37.786Z,29.8
2018-03-11T11:13:27.813Z,29.6
2018-03-11T11:14:16.398Z,29.4
2018-03-11T11:15:05.634Z,29.2
2018-03-11T11:15:57.203Z,29.1
2018-03-11T11:16:46.896Z,28.9
2018-03-11T11:17:37.838Z,28.8
2018-03-11T11:18:25.821Z,28.7
2018-03-11T11:19:17.211Z,28.5
2018-03-11T11:20:07.602Z,28.4
2018-03-11T11:20:57.403Z,28.3
2018-03-11T11:21:46.708Z,28.2
2018-03-11T11:22:36.942Z,28
2018-03-11T11:23:27.237Z,27.9
2018-03-11T11:24:17.164Z,26.5
2018-03-11T11:25:09.768Z,26.1
2018-03-11T11:25:59.507Z,26.4
2018-03-11T11:26:49.667Z,27.1
2018-03-11T11:27:39.657Z,28.8
2018-03-11T11:28:29.967Z,31.8
2018-03-11T11:29:19.195Z,34.6
2018-03-11T11:30:10.108Z,36.3
2018-03-11T11:30:59.115Z,36.8
2018-03-11T11:31:49.671Z,36.6
2018-03-11T11:32:39.429Z,36.3
2018-03-11T11:33:28.418Z,36.2
2018-03-11T11:34:19.591Z,36
2018-03-11T11:35:10.027Z,35.8
2018-03-11T11:36:00.579Z,35.6
2018-03-11T11:36:50.095Z,35.4
2018-03-11T11:37:40.777Z,35.3
2018-03-11T11:38:30.267Z,35
2018-03-11T11:39:19.667Z,34.7
2018-03-11T11:40:10.365Z,34.4
2018-03-11T11:41:00.057Z,34.1
